sensor_id;sensor_type;location;lat;lon;timestamp;temperature;humidity
20422;DHT22;10370;53.102;18.034;2023-03-15T00:04:44;3.50;99.90
20422;DHT22;10370;53.102;18.034;2023-03-15T00:10:05;3.50;99.90
20422;DHT22;10370;53.102;18.034;2023-03-15T00:15:30;3.50;99.90
20422;DHT22;10370;53.102;18.034;2023-03-15T00:20:54;3.50;99.90
20422;DHT22;10370;53.102;18.034;2023-03-15T00:26:19;3.30;99.90
20422;DHT22;10370;53.102;18.034;2023-03-15T00:31:42;3.10;99.90
20422;DHT22;10370;53.102;18.034;2023-03-15T00:37:07;3.00;99.90
20422;DHT22;10370;53.102;18.034;2023-03-15T00:42:32;3.00;99.90
20422;DHT22;10370;53.102;18.034;2023-03-15T00:47:57;2.80;99.90
20422;DHT22;10370;53.102;18.034;2023-03-15T00:53:23;2.80;99.90
20422;DHT22;10370;53.102;18.034;2023-03-15T00:58:48;2.80;99.90
20422;DHT22;10370;53.102;18.034;2023-03-15T01:04:11;2.80;99.90
20422;DHT22;10370;53.102;18.034;2023-03-15T01:09:34;2.70;99.90
20422;DHT22;10370;53.102;18.034;2023-03-15T01:15:00;2.70;99.90
20422;DHT22;10370;53.102;18.034;2023-03-15T01:20:24;2.70;99.90
20422;DHT22;10370;53.102;18.034;2023-03-15T01:25:49;2.60;99.90
20422;DHT22;10370;53.102;18.034;2023-03-15T01:31:26;2.50;99.90
20422;DHT22;10370;53.102;18.034;2023-03-15T01:36:51;2.50;99.90
20422;DHT22;10370;53.102;18.034;2023-03-15T01:42:18;2.50;99.90
20422;DHT22;10370;53.102;18.034;2023-03-15T01:47:43;2.50;99.90
20422;DHT22;10370;53.102;18.034;2023-03-15T01:53:08;2.40;99.90
20422;DHT22;10370;53.102;18.034;2023-03-15T01:58:34;2.50;99.90
20422;DHT22;10370;53.102;18.034;2023-03-15T02:04:04;2.40;99.90
20422;DHT22;10370;53.102;18.034;2023-03-15T02:09:33;2.40;99.90
20422;DHT22;10370;53.102;18.034;2023-03-15T02:14:55;2.30;99.90
20422;DHT22;10370;53.102;18.034;2023-03-15T02:31:29;2.10;99.90
20422;DHT22;10370;53.102;18.034;2023-03-15T02:37:01;2.30;99.90
20422;DHT22;10370;53.102;18.034;2023-03-15T02:42:24;2.20;99.90
20422;DHT22;10370;53.102;18.034;2023-03-15T02:47:52;2.30;99.90
20422;DHT22;10370;53.102;18.034;2023-03-15T02:53:16;2.20;99.90
20422;DHT22;10370;53.102;18.034;2023-03-15T02:58:41;2.10;99.90
20422;DHT22;10370;53.102;18.034;2023-03-15T03:04:09;2.20;99.90
20422;DHT22;10370;53.102;18.034;2023-03-15T03:09:35;2.30;99.90
20422;DHT22;10370;53.102;18.034;2023-03-15T03:15:05;2.20;99.90
20422;DHT22;10370;53.102;18.034;2023-03-15T03:20:30;2.30;99.90
20422;DHT22;10370;53.102;18.034;2023-03-15T03:25:56;2.30;99.90
20422;DHT22;10370;53.102;18.034;2023-03-15T03:31:25;2.30;99.90
20422;DHT22;10370;53.102;18.034;2023-03-15T03:36:51;2.20;99.90
20422;DHT22;10370;53.102;18.034;2023-03-15T03:42:14;2.10;99.90
20422;DHT22;10370;53.102;18.034;2023-03-15T03:47:40;2.00;99.90
20422;DHT22;10370;53.102;18.034;2023-03-15T03:53:05;1.90;99.90
20422;DHT22;10370;53.102;18.034;2023-03-15T03:58:30;1.80;99.90
20422;DHT22;10370;53.102;18.034;2023-03-15T04:03:56;1.80;99.90
20422;DHT22;10370;53.102;18.034;2023-03-15T04:09:19;1.80;99.90
20422;DHT22;10370;53.102;18.034;2023-03-15T04:14:43;1.80;99.90
20422;DHT22;10370;53.102;18.034;2023-03-15T04:20:11;1.70;99.90
20422;DHT22;10370;53.102;18.034;2023-03-15T04:25:37;1.60;99.90
20422;DHT22;10370;53.102;18.034;2023-03-15T04:36:28;1.70;99.90
20422;DHT22;10370;53.102;18.034;2023-03-15T04:41:53;1.70;99.90
20422;DHT22;10370;53.102;18.034;2023-03-15T04:47:19;1.80;99.90
20422;DHT22;10370;53.102;18.034;2023-03-15T04:52:46;1.90;99.90
20422;DHT22;10370;53.102;18.034;2023-03-15T04:58:15;2.00;99.90
20422;DHT22;10370;53.102;18.034;2023-03-15T05:03:43;1.90;99.90
20422;DHT22;10370;53.102;18.034;2023-03-15T05:09:08;1.90;99.90
20422;DHT22;10370;53.102;18.034;2023-03-15T05:14:30;1.90;99.90
20422;DHT22;10370;53.102;18.034;2023-03-15T05:19:51;1.80;99.90
20422;DHT22;10370;53.102;18.034;2023-03-15T05:25:14;2.00;99.90
20422;DHT22;10370;53.102;18.034;2023-03-15T05:30:38;2.00;99.90
20422;DHT22;10370;53.102;18.034;2023-03-15T05:36:03;2.10;99.90
20422;DHT22;10370;53.102;18.034;2023-03-15T05:41:28;2.10;99.90
20422;DHT22;10370;53.102;18.034;2023-03-15T05:46:51;2.20;99.90
20422;DHT22;10370;53.102;18.034;2023-03-15T05:52:16;2.60;99.90
20422;DHT22;10370;53.102;18.034;2023-03-15T05:57:41;2.60;99.90
20422;DHT22;10370;53.102;18.034;2023-03-15T06:03:10;2.60;99.90
20422;DHT22;10370;53.102;18.034;2023-03-15T06:08:32;2.50;99.90
20422;DHT22;10370;53.102;18.034;2023-03-15T06:13:57;2.50;99.90
20422;DHT22;10370;53.102;18.034;2023-03-15T06:19:23;2.40;99.90
20422;DHT22;10370;53.102;18.034;2023-03-15T06:24:51;2.50;99.90
20422;DHT22;10370;53.102;18.034;2023-03-15T06:30:17;2.70;99.90
20422;DHT22;10370;53.102;18.034;2023-03-15T06:35:40;2.80;99.90
20422;DHT22;10370;53.102;18.034;2023-03-15T06:41:04;3.00;99.90
20422;DHT22;10370;53.102;18.034;2023-03-15T06:46:33;3.30;99.90
20422;DHT22;10370;53.102;18.034;2023-03-15T06:51:56;3.50;99.90
20422;DHT22;10370;53.102;18.034;2023-03-15T06:57:17;3.40;99.90
20422;DHT22;10370;53.102;18.034;2023-03-15T07:02:38;3.20;99.90
20422;DHT22;10370;53.102;18.034;2023-03-15T07:08:01;3.20;99.90
20422;DHT22;10370;53.102;18.034;2023-03-15T07:13:24;3.40;99.90
20422;DHT22;10370;53.102;18.034;2023-03-15T07:18:45;3.20;99.90
20422;DHT22;10370;53.102;18.034;2023-03-15T07:24:07;3.20;99.90
20422;DHT22;10370;53.102;18.034;2023-03-15T07:29:30;3.00;99.90
20422;DHT22;10370;53.102;18.034;2023-03-15T07:34:54;2.80;99.90
20422;DHT22;10370;53.102;18.034;2023-03-15T07:40:18;2.70;99.90
20422;DHT22;10370;53.102;18.034;2023-03-15T07:45:41;2.60;99.90
20422;DHT22;10370;53.102;18.034;2023-03-15T07:51:08;2.70;99.90
20422;DHT22;10370;53.102;18.034;2023-03-15T07:56:31;2.70;99.90
20422;DHT22;10370;53.102;18.034;2023-03-15T08:01:55;2.70;99.90
20422;DHT22;10370;53.102;18.034;2023-03-15T08:07:18;2.70;99.90
20422;DHT22;10370;53.102;18.034;2023-03-15T08:12:41;2.70;99.90
20422;DHT22;10370;53.102;18.034;2023-03-15T08:18:03;2.70;99.90
20422;DHT22;10370;53.102;18.034;2023-03-15T08:23:25;2.80;99.90
20422;DHT22;10370;53.102;18.034;2023-03-15T08:28:49;3.10;99.90
20422;DHT22;10370;53.102;18.034;2023-03-15T08:34:10;3.30;99.90
20422;DHT22;10370;53.102;18.034;2023-03-15T08:39:33;3.40;99.90
20422;DHT22;10370;53.102;18.034;2023-03-15T08:44:58;3.40;99.90
20422;DHT22;10370;53.102;18.034;2023-03-15T08:50:22;3.40;99.90
20422;DHT22;10370;53.102;18.034;2023-03-15T08:55:48;3.50;99.90
20422;DHT22;10370;53.102;18.034;2023-03-15T09:01:12;3.40;99.90
20422;DHT22;10370;53.102;18.034;2023-03-15T09:06:37;3.30;99.90
20422;DHT22;10370;53.102;18.034;2023-03-15T09:12:01;3.30;99.90
20422;DHT22;10370;53.102;18.034;2023-03-15T09:17:22;3.40;99.90
20422;DHT22;10370;53.102;18.034;2023-03-15T09:22:52;3.30;99.90
20422;DHT22;10370;53.102;18.034;2023-03-15T09:28:17;3.50;99.90
20422;DHT22;10370;53.102;18.034;2023-03-15T09:33:42;3.60;99.90
20422;DHT22;10370;53.102;18.034;2023-03-15T09:39:06;3.70;99.90
20422;DHT22;10370;53.102;18.034;2023-03-15T09:55:41;3.70;99.90
20422;DHT22;10370;53.102;18.034;2023-03-15T10:01:09;3.80;99.90
20422;DHT22;10370;53.102;18.034;2023-03-15T10:06:41;3.90;99.90
20422;DHT22;10370;53.102;18.034;2023-03-15T10:12:14;4.10;99.90
20422;DHT22;10370;53.102;18.034;2023-03-15T10:28:49;4.30;99.90
20422;DHT22;10370;53.102;18.034;2023-03-15T10:34:13;4.30;99.90
20422;DHT22;10370;53.102;18.034;2023-03-15T10:39:35;4.50;99.90
20422;DHT22;10370;53.102;18.034;2023-03-15T10:45:23;4.40;99.90
20422;DHT22;10370;53.102;18.034;2023-03-15T10:50:44;4.70;99.90
20422;DHT22;10370;53.102;18.034;2023-03-15T10:56:11;4.70;99.90
20422;DHT22;10370;53.102;18.034;2023-03-15T11:01:38;4.70;99.90
20422;DHT22;10370;53.102;18.034;2023-03-15T11:07:02;4.80;99.90
20422;DHT22;10370;53.102;18.034;2023-03-15T11:12:30;4.70;99.90
20422;DHT22;10370;53.102;18.034;2023-03-15T11:17:54;4.80;99.90
20422;DHT22;10370;53.102;18.034;2023-03-15T11:23:26;5.00;99.90
20422;DHT22;10370;53.102;18.034;2023-03-15T11:28:56;5.00;99.90
20422;DHT22;10370;53.102;18.034;2023-03-15T11:40:22;5.40;99.90
20422;DHT22;10370;53.102;18.034;2023-03-15T11:45:50;5.30;99.90
20422;DHT22;10370;53.102;18.034;2023-03-15T11:51:15;5.20;99.90
20422;DHT22;10370;53.102;18.034;2023-03-15T11:56:47;5.00;99.90
20422;DHT22;10370;53.102;18.034;2023-03-15T12:07:37;4.90;99.90
20422;DHT22;10370;53.102;18.034;2023-03-15T12:13:29;5.10;99.90
20422;DHT22;10370;53.102;18.034;2023-03-15T12:18:54;5.50;99.90
20422;DHT22;10370;53.102;18.034;2023-03-15T12:24:35;5.90;99.90
20422;DHT22;10370;53.102;18.034;2023-03-15T12:29:59;6.00;99.90
20422;DHT22;10370;53.102;18.034;2023-03-15T12:35:28;6.00;99.90
20422;DHT22;10370;53.102;18.034;2023-03-15T12:40:53;6.10;99.90
20422;DHT22;10370;53.102;18.034;2023-03-15T12:57:44;6.00;99.90
20422;DHT22;10370;53.102;18.034;2023-03-15T13:03:14;6.10;99.90
20422;DHT22;10370;53.102;18.034;2023-03-15T13:31:16;6.10;99.90
20422;DHT22;10370;53.102;18.034;2023-03-15T13:36:49;5.70;99.90
20422;DHT22;10370;53.102;18.034;2023-03-15T13:42:20;5.40;99.90
20422;DHT22;10370;53.102;18.034;2023-03-15T13:47:48;5.40;99.90
20422;DHT22;10370;53.102;18.034;2023-03-15T13:53:22;5.50;99.90
20422;DHT22;10370;53.102;18.034;2023-03-15T13:59:05;5.60;99.90
20422;DHT22;10370;53.102;18.034;2023-03-15T14:04:29;5.70;99.90
20422;DHT22;10370;53.102;18.034;2023-03-15T14:10:20;5.80;99.90
20422;DHT22;10370;53.102;18.034;2023-03-15T14:15:46;6.00;99.90
20422;DHT22;10370;53.102;18.034;2023-03-15T14:21:17;6.10;99.90
20422;DHT22;10370;53.102;18.034;2023-03-15T14:26:48;6.10;99.90
20422;DHT22;10370;53.102;18.034;2023-03-15T14:32:32;6.20;99.90
20422;DHT22;10370;53.102;18.034;2023-03-15T14:43:26;6.20;99.90
20422;DHT22;10370;53.102;18.034;2023-03-15T14:48:51;5.80;99.90
20422;DHT22;10370;53.102;18.034;2023-03-15T14:54:15;5.70;99.90
20422;DHT22;10370;53.102;18.034;2023-03-15T14:59:40;5.80;99.90
20422;DHT22;10370;53.102;18.034;2023-03-15T15:05:13;6.00;99.90
20422;DHT22;10370;53.102;18.034;2023-03-15T15:10:40;6.00;99.90
20422;DHT22;10370;53.102;18.034;2023-03-15T15:16:04;6.10;99.90
20422;DHT22;10370;53.102;18.034;2023-03-15T15:21:28;6.00;99.90
20422;DHT22;10370;53.102;18.034;2023-03-15T15:26:53;5.90;99.90
20422;DHT22;10370;53.102;18.034;2023-03-15T15:32:18;5.80;99.90
20422;DHT22;10370;53.102;18.034;2023-03-15T15:37:43;5.80;99.90
20422;DHT22;10370;53.102;18.034;2023-03-15T15:43:09;5.80;99.90
20422;DHT22;10370;53.102;18.034;2023-03-15T15:48:33;5.60;99.90
20422;DHT22;10370;53.102;18.034;2023-03-15T15:53:57;5.60;99.90
20422;DHT22;10370;53.102;18.034;2023-03-15T15:59:23;5.50;99.90
20422;DHT22;10370;53.102;18.034;2023-03-15T16:04:49;5.50;99.90
20422;DHT22;10370;53.102;18.034;2023-03-15T16:10:18;5.40;99.90
20422;DHT22;10370;53.102;18.034;2023-03-15T16:15:43;5.30;99.90
20422;DHT22;10370;53.102;18.034;2023-03-15T16:21:15;5.20;99.90
20422;DHT22;10370;53.102;18.034;2023-03-15T16:26:46;5.10;99.90
20422;DHT22;10370;53.102;18.034;2023-03-15T16:32:13;4.90;99.90
20422;DHT22;10370;53.102;18.034;2023-03-15T16:37:48;4.70;99.90
20422;DHT22;10370;53.102;18.034;2023-03-15T16:43:14;4.60;99.90
20422;DHT22;10370;53.102;18.034;2023-03-15T16:48:39;4.40;99.90
20422;DHT22;10370;53.102;18.034;2023-03-15T16:54:09;4.30;99.90
20422;DHT22;10370;53.102;18.034;2023-03-15T16:59:47;4.20;99.90
20422;DHT22;10370;53.102;18.034;2023-03-15T17:05:11;4.00;99.90
20422;DHT22;10370;53.102;18.034;2023-03-15T17:10:39;3.80;99.90
20422;DHT22;10370;53.102;18.034;2023-03-15T17:16:10;3.60;99.90
20422;DHT22;10370;53.102;18.034;2023-03-15T17:21:33;3.40;99.90
20422;DHT22;10370;53.102;18.034;2023-03-15T17:27:00;3.20;99.90
20422;DHT22;10370;53.102;18.034;2023-03-15T17:32:26;3.10;99.90
20422;DHT22;10370;53.102;18.034;2023-03-15T17:37:49;2.90;99.90
20422;DHT22;10370;53.102;18.034;2023-03-15T17:43:12;2.80;99.90
20422;DHT22;10370;53.102;18.034;2023-03-15T17:48:38;2.70;99.90
20422;DHT22;10370;53.102;18.034;2023-03-15T17:54:01;2.50;99.90
20422;DHT22;10370;53.102;18.034;2023-03-15T17:59:24;2.40;99.90
20422;DHT22;10370;53.102;18.034;2023-03-15T18:04:48;2.20;99.90
20422;DHT22;10370;53.102;18.034;2023-03-15T18:10:16;1.90;99.90
20422;DHT22;10370;53.102;18.034;2023-03-15T18:15:45;1.60;99.90
20422;DHT22;10370;53.102;18.034;2023-03-15T18:21:15;1.40;99.90
20422;DHT22;10370;53.102;18.034;2023-03-15T18:26:39;1.20;99.90
20422;DHT22;10370;53.102;18.034;2023-03-15T18:32:02;1.10;99.90
20422;DHT22;10370;53.102;18.034;2023-03-15T18:37:28;0.90;99.90
20422;DHT22;10370;53.102;18.034;2023-03-15T18:42:55;0.70;99.90
20422;DHT22;10370;53.102;18.034;2023-03-15T18:48:22;0.60;99.90
20422;DHT22;10370;53.102;18.034;2023-03-15T18:54:01;0.50;99.90
20422;DHT22;10370;53.102;18.034;2023-03-15T18:59:24;0.50;99.90
20422;DHT22;10370;53.102;18.034;2023-03-15T19:04:45;0.40;99.90
20422;DHT22;10370;53.102;18.034;2023-03-15T19:10:09;0.30;99.90
20422;DHT22;10370;53.102;18.034;2023-03-15T19:15:33;0.20;99.90
20422;DHT22;10370;53.102;18.034;2023-03-15T19:20:54;0.10;99.90
20422;DHT22;10370;53.102;18.034;2023-03-15T19:26:17;0.00;99.90
20422;DHT22;10370;53.102;18.034;2023-03-15T19:31:39;0.00;99.90
20422;DHT22;10370;53.102;18.034;2023-03-15T19:37:00;-0.10;99.90
20422;DHT22;10370;53.102;18.034;2023-03-15T19:42:24;-0.20;99.90
20422;DHT22;10370;53.102;18.034;2023-03-15T19:47:50;-0.20;99.90
20422;DHT22;10370;53.102;18.034;2023-03-15T19:53:15;-0.30;99.90
20422;DHT22;10370;53.102;18.034;2023-03-15T19:58:38;-0.40;99.90
20422;DHT22;10370;53.102;18.034;2023-03-15T20:04:04;-0.40;99.90
20422;DHT22;10370;53.102;18.034;2023-03-15T20:09:32;-0.40;99.90
20422;DHT22;10370;53.102;18.034;2023-03-15T20:14:59;-0.50;99.90
20422;DHT22;10370;53.102;18.034;2023-03-15T20:20:22;-0.60;99.90
20422;DHT22;10370;53.102;18.034;2023-03-15T20:25:47;-0.70;99.90
20422;DHT22;10370;53.102;18.034;2023-03-15T20:31:14;-0.80;99.90
20422;DHT22;10370;53.102;18.034;2023-03-15T20:36:39;-0.90;99.90
20422;DHT22;10370;53.102;18.034;2023-03-15T20:42:05;-1.00;99.90
20422;DHT22;10370;53.102;18.034;2023-03-15T20:47:31;-1.10;99.90
20422;DHT22;10370;53.102;18.034;2023-03-15T20:52:54;-1.00;99.90
20422;DHT22;10370;53.102;18.034;2023-03-15T20:58:19;-1.00;99.90
20422;DHT22;10370;53.102;18.034;2023-03-15T21:04:06;-0.90;99.90
20422;DHT22;10370;53.102;18.034;2023-03-15T21:09:33;-1.00;99.90
20422;DHT22;10370;53.102;18.034;2023-03-15T21:15:13;-1.10;99.90
20422;DHT22;10370;53.102;18.034;2023-03-15T21:20:39;-1.10;99.90
20422;DHT22;10370;53.102;18.034;2023-03-15T21:26:18;-1.20;99.90
20422;DHT22;10370;53.102;18.034;2023-03-15T21:31:51;-1.20;99.90
20422;DHT22;10370;53.102;18.034;2023-03-15T21:37:14;-1.10;99.90
20422;DHT22;10370;53.102;18.034;2023-03-15T21:42:37;-1.20;99.90
20422;DHT22;10370;53.102;18.034;2023-03-15T21:47:58;-1.20;99.90
20422;DHT22;10370;53.102;18.034;2023-03-15T21:53:20;-1.30;99.90
20422;DHT22;10370;53.102;18.034;2023-03-15T22:04:31;-1.40;99.90
20422;DHT22;10370;53.102;18.034;2023-03-15T22:09:59;-1.40;99.90
20422;DHT22;10370;53.102;18.034;2023-03-15T22:15:34;-1.50;99.90
20422;DHT22;10370;53.102;18.034;2023-03-15T22:20:59;-1.40;99.90
20422;DHT22;10370;53.102;18.034;2023-03-15T22:26:24;-1.30;99.90
20422;DHT22;10370;53.102;18.034;2023-03-15T22:31:53;-1.40;99.90
20422;DHT22;10370;53.102;18.034;2023-03-15T22:37:21;-1.40;99.90
20422;DHT22;10370;53.102;18.034;2023-03-15T22:42:46;-1.50;99.90
20422;DHT22;10370;53.102;18.034;2023-03-15T22:48:13;-1.50;99.90
20422;DHT22;10370;53.102;18.034;2023-03-15T22:53:36;-1.40;99.90
20422;DHT22;10370;53.102;18.034;2023-03-15T22:58:59;-1.40;99.90
20422;DHT22;10370;53.102;18.034;2023-03-15T23:04:25;-1.50;99.90
20422;DHT22;10370;53.102;18.034;2023-03-15T23:09:50;-1.50;99.90
20422;DHT22;10370;53.102;18.034;2023-03-15T23:15:17;-1.60;99.90
20422;DHT22;10370;53.102;18.034;2023-03-15T23:20:42;-1.70;99.90
20422;DHT22;10370;53.102;18.034;2023-03-15T23:26:10;-1.70;99.90
20422;DHT22;10370;53.102;18.034;2023-03-15T23:31:40;-1.60;99.90
20422;DHT22;10370;53.102;18.034;2023-03-15T23:37:06;-1.60;99.90
20422;DHT22;10370;53.102;18.034;2023-03-15T23:42:31;-1.60;99.90
20422;DHT22;10370;53.102;18.034;2023-03-15T23:47:54;-1.60;99.90
20422;DHT22;10370;53.102;18.034;2023-03-15T23:53:23;-1.70;99.90
20422;DHT22;10370;53.102;18.034;2023-03-15T23:58:51;-1.60;99.90
